sensor_id;sensor_type;location;lat;lon;timestamp;P1;durP1;ratioP1;P2;durP2;ratioP2
69795;SDS011;57073;45.650;9.612;2022-12-18T00:04:28;21.97;;;12.27;;
69795;SDS011;57073;45.650;9.612;2022-12-18T00:14:28;22.77;;;13.43;;
69795;SDS011;57073;45.650;9.612;2022-12-18T00:24:28;20.60;;;12.50;;
69795;SDS011;57073;45.650;9.612;2022-12-18T00:34:29;19.98;;;12.23;;
69795;SDS011;57073;45.650;9.612;2022-12-18T00:44:29;24.20;;;12.93;;
69795;SDS011;57073;45.650;9.612;2022-12-18T00:54:29;20.95;;;13.25;;
69795;SDS011;57073;45.650;9.612;2022-12-18T01:04:33;22.23;;;12.68;;
69795;SDS011;57073;45.650;9.612;2022-12-18T01:14:34;24.27;;;13.00;;
69795;SDS011;57073;45.650;9.612;2022-12-18T01:24:34;23.23;;;12.63;;
69795;SDS011;57073;45.650;9.612;2022-12-18T01:34:35;24.40;;;13.07;;
69795;SDS011;57073;45.650;9.612;2022-12-18T01:55:02;24.53;;;13.60;;
69795;SDS011;57073;45.650;9.612;2022-12-18T02:05:04;26.90;;;14.07;;
69795;SDS011;57073;45.650;9.612;2022-12-18T02:15:16;23.70;;;13.50;;
69795;SDS011;57073;45.650;9.612;2022-12-18T02:36:06;24.38;;;13.07;;
69795;SDS011;57073;45.650;9.612;2022-12-18T02:46:25;24.80;;;12.43;;
69795;SDS011;57073;45.650;9.612;2022-12-18T02:56:31;22.60;;;11.77;;
69795;SDS011;57073;45.650;9.612;2022-12-18T03:06:41;23.07;;;12.03;;
69795;SDS011;57073;45.650;9.612;2022-12-18T03:16:47;21.63;;;11.60;;
69795;SDS011;57073;45.650;9.612;2022-12-18T03:26:55;20.37;;;11.57;;
69795;SDS011;57073;45.650;9.612;2022-12-18T03:37:01;22.93;;;13.07;;
69795;SDS011;57073;45.650;9.612;2022-12-18T03:57:18;58.57;;;24.60;;
69795;SDS011;57073;45.650;9.612;2022-12-18T04:07:20;23.53;;;13.03;;
69795;SDS011;57073;45.650;9.612;2022-12-18T04:17:22;21.77;;;12.02;;
69795;SDS011;57073;45.650;9.612;2022-12-18T04:27:22;21.57;;;12.70;;
69795;SDS011;57073;45.650;9.612;2022-12-18T04:37:23;20.30;;;12.18;;
69795;SDS011;57073;45.650;9.612;2022-12-18T04:47:23;21.88;;;11.38;;
69795;SDS011;57073;45.650;9.612;2022-12-18T04:57:23;15.70;;;9.27;;
69795;SDS011;57073;45.650;9.612;2022-12-18T05:07:24;16.60;;;9.30;;
69795;SDS011;57073;45.650;9.612;2022-12-18T05:17:24;16.58;;;9.75;;
69795;SDS011;57073;45.650;9.612;2022-12-18T05:27:25;14.18;;;8.65;;
69795;SDS011;57073;45.650;9.612;2022-12-18T05:37:25;11.83;;;7.47;;
69795;SDS011;57073;45.650;9.612;2022-12-18T05:47:26;11.60;;;6.80;;
69795;SDS011;57073;45.650;9.612;2022-12-18T05:57:27;12.07;;;6.07;;
69795;SDS011;57073;45.650;9.612;2022-12-18T06:07:28;9.43;;;5.50;;
69795;SDS011;57073;45.650;9.612;2022-12-18T06:17:29;9.40;;;5.22;;
69795;SDS011;57073;45.650;9.612;2022-12-18T06:27:32;10.37;;;5.23;;
69795;SDS011;57073;45.650;9.612;2022-12-18T06:37:33;9.52;;;5.60;;
69795;SDS011;57073;45.650;9.612;2022-12-18T06:47:33;11.07;;;6.23;;
69795;SDS011;57073;45.650;9.612;2022-12-18T06:57:34;11.30;;;6.13;;
69795;SDS011;57073;45.650;9.612;2022-12-18T07:07:34;10.38;;;6.05;;
69795;SDS011;57073;45.650;9.612;2022-12-18T07:17:35;13.70;;;7.32;;
69795;SDS011;57073;45.650;9.612;2022-12-18T07:27:35;12.67;;;8.13;;
69795;SDS011;57073;45.650;9.612;2022-12-18T07:37:35;15.25;;;9.25;;
69795;SDS011;57073;45.650;9.612;2022-12-18T07:47:36;16.38;;;9.77;;
69795;SDS011;57073;45.650;9.612;2022-12-18T07:57:36;18.60;;;10.68;;
69795;SDS011;57073;45.650;9.612;2022-12-18T08:07:37;22.67;;;12.77;;
69795;SDS011;57073;45.650;9.612;2022-12-18T08:17:38;23.43;;;13.00;;
69795;SDS011;57073;45.650;9.612;2022-12-18T08:27:38;22.80;;;13.02;;
69795;SDS011;57073;45.650;9.612;2022-12-18T08:37:38;24.43;;;13.70;;
69795;SDS011;57073;45.650;9.612;2022-12-18T08:47:39;24.63;;;14.35;;
69795;SDS011;57073;45.650;9.612;2022-12-18T08:57:39;33.65;;;16.33;;
69795;SDS011;57073;45.650;9.612;2022-12-18T09:07:39;30.35;;;15.95;;
69795;SDS011;57073;45.650;9.612;2022-12-18T09:17:40;29.90;;;15.87;;
69795;SDS011;57073;45.650;9.612;2022-12-18T09:27:40;33.40;;;17.20;;
69795;SDS011;57073;45.650;9.612;2022-12-18T09:37:40;35.45;;;16.20;;
69795;SDS011;57073;45.650;9.612;2022-12-18T09:47:42;32.63;;;17.43;;
69795;SDS011;57073;45.650;9.612;2022-12-18T09:57:47;32.08;;;16.55;;
69795;SDS011;57073;45.650;9.612;2022-12-18T10:17:58;25.40;;;13.95;;
69795;SDS011;57073;45.650;9.612;2022-12-18T10:28:15;28.73;;;14.13;;
69795;SDS011;57073;45.650;9.612;2022-12-18T10:48:18;22.48;;;10.60;;
69795;SDS011;57073;45.650;9.612;2022-12-18T11:08:32;19.17;;;10.47;;
69795;SDS011;57073;45.650;9.612;2022-12-18T11:18:33;15.27;;;8.80;;
69795;SDS011;57073;45.650;9.612;2022-12-18T11:28:43;15.88;;;8.98;;
69795;SDS011;57073;45.650;9.612;2022-12-18T11:38:46;18.67;;;8.87;;
69795;SDS011;57073;45.650;9.612;2022-12-18T11:48:55;20.10;;;11.40;;
69795;SDS011;57073;45.650;9.612;2022-12-18T12:30:18;16.60;;;9.63;;
69795;SDS011;57073;45.650;9.612;2022-12-18T12:40:23;18.37;;;10.00;;
69795;SDS011;57073;45.650;9.612;2022-12-18T12:50:27;20.42;;;10.18;;
69795;SDS011;57073;45.650;9.612;2022-12-18T13:00:29;18.50;;;10.33;;
69795;SDS011;57073;45.650;9.612;2022-12-18T13:10:36;21.50;;;10.27;;
69795;SDS011;57073;45.650;9.612;2022-12-18T13:30:49;18.38;;;10.23;;
69795;SDS011;57073;45.650;9.612;2022-12-18T13:50:57;22.73;;;11.47;;
69795;SDS011;57073;45.650;9.612;2022-12-18T14:01:00;20.45;;;10.98;;
69795;SDS011;57073;45.650;9.612;2022-12-18T14:11:03;21.00;;;11.10;;
69795;SDS011;57073;45.650;9.612;2022-12-18T14:21:06;22.97;;;11.23;;
69795;SDS011;57073;45.650;9.612;2022-12-18T14:31:19;26.80;;;13.02;;
69795;SDS011;57073;45.650;9.612;2022-12-18T14:41:21;24.30;;;12.73;;
69795;SDS011;57073;45.650;9.612;2022-12-18T14:51:23;32.33;;;16.47;;
69795;SDS011;57073;45.650;9.612;2022-12-18T15:01:33;37.80;;;17.73;;
69795;SDS011;57073;45.650;9.612;2022-12-18T15:21:40;42.67;;;20.20;;
69795;SDS011;57073;45.650;9.612;2022-12-18T15:31:43;48.42;;;22.27;;
69795;SDS011;57073;45.650;9.612;2022-12-18T15:41:44;46.10;;;21.80;;
69795;SDS011;57073;45.650;9.612;2022-12-18T15:52:05;47.70;;;20.90;;
69795;SDS011;57073;45.650;9.612;2022-12-18T16:02:08;44.83;;;21.00;;
69795;SDS011;57073;45.650;9.612;2022-12-18T16:12:20;47.13;;;22.20;;
69795;SDS011;57073;45.650;9.612;2022-12-18T16:32:24;42.50;;;19.48;;
69795;SDS011;57073;45.650;9.612;2022-12-18T16:42:25;38.80;;;19.13;;
69795;SDS011;57073;45.650;9.612;2022-12-18T16:52:25;38.67;;;18.77;;
69795;SDS011;57073;45.650;9.612;2022-12-18T17:02:26;42.03;;;19.77;;
69795;SDS011;57073;45.650;9.612;2022-12-18T17:12:27;47.13;;;21.50;;
69795;SDS011;57073;45.650;9.612;2022-12-18T17:22:27;54.97;;;21.00;;
69795;SDS011;57073;45.650;9.612;2022-12-18T17:32:27;56.25;;;22.65;;
69795;SDS011;57073;45.650;9.612;2022-12-18T17:42:28;96.05;;;22.13;;
69795;SDS011;57073;45.650;9.612;2022-12-18T17:52:28;59.20;;;23.13;;
69795;SDS011;57073;45.650;9.612;2022-12-18T18:02:28;68.45;;;21.70;;
69795;SDS011;57073;45.650;9.612;2022-12-18T18:12:29;53.38;;;22.25;;
69795;SDS011;57073;45.650;9.612;2022-12-18T18:22:48;63.13;;;21.37;;
69795;SDS011;57073;45.650;9.612;2022-12-18T18:32:48;61.50;;;23.38;;
69795;SDS011;57073;45.650;9.612;2022-12-18T18:42:49;62.60;;;23.40;;
69795;SDS011;57073;45.650;9.612;2022-12-18T18:52:49;49.50;;;20.83;;
69795;SDS011;57073;45.650;9.612;2022-12-18T19:02:50;55.15;;;23.27;;
69795;SDS011;57073;45.650;9.612;2022-12-18T19:12:50;59.37;;;24.90;;
69795;SDS011;57073;45.650;9.612;2022-12-18T19:23:09;71.07;;;25.30;;
69795;SDS011;57073;45.650;9.612;2022-12-18T19:33:10;57.97;;;23.30;;
69795;SDS011;57073;45.650;9.612;2022-12-18T19:43:10;53.92;;;21.67;;
69795;SDS011;57073;45.650;9.612;2022-12-18T19:53:11;58.63;;;22.87;;
69795;SDS011;57073;45.650;9.612;2022-12-18T20:03:11;62.67;;;23.23;;
69795;SDS011;57073;45.650;9.612;2022-12-18T20:13:11;48.28;;;20.20;;
69795;SDS011;57073;45.650;9.612;2022-12-18T20:23:12;50.00;;;20.87;;
69795;SDS011;57073;45.650;9.612;2022-12-18T20:33:12;51.95;;;21.17;;
69795;SDS011;57073;45.650;9.612;2022-12-18T20:43:13;53.88;;;20.90;;
69795;SDS011;57073;45.650;9.612;2022-12-18T20:53:14;56.37;;;22.33;;
69795;SDS011;57073;45.650;9.612;2022-12-18T21:03:14;60.70;;;22.02;;
69795;SDS011;57073;45.650;9.612;2022-12-18T21:13:15;49.00;;;20.70;;
69795;SDS011;57073;45.650;9.612;2022-12-18T21:23:15;54.13;;;20.67;;
69795;SDS011;57073;45.650;9.612;2022-12-18T21:33:15;59.57;;;21.93;;
69795;SDS011;57073;45.650;9.612;2022-12-18T21:43:16;53.13;;;21.93;;
69795;SDS011;57073;45.650;9.612;2022-12-18T21:53:35;55.95;;;21.58;;
69795;SDS011;57073;45.650;9.612;2022-12-18T22:03:35;45.03;;;19.40;;
69795;SDS011;57073;45.650;9.612;2022-12-18T22:13:35;45.38;;;20.05;;
69795;SDS011;57073;45.650;9.612;2022-12-18T22:23:36;44.83;;;19.52;;
69795;SDS011;57073;45.650;9.612;2022-12-18T22:33:36;36.50;;;16.97;;
69795;SDS011;57073;45.650;9.612;2022-12-18T22:43:36;32.78;;;16.33;;
69795;SDS011;57073;45.650;9.612;2022-12-18T22:53:37;25.98;;;13.95;;
69795;SDS011;57073;45.650;9.612;2022-12-18T23:03:37;27.13;;;13.87;;
69795;SDS011;57073;45.650;9.612;2022-12-18T23:13:38;31.08;;;14.75;;
69795;SDS011;57073;45.650;9.612;2022-12-18T23:23:39;42.13;;;17.30;;
69795;SDS011;57073;45.650;9.612;2022-12-18T23:33:40;39.80;;;16.80;;
69795;SDS011;57073;45.650;9.612;2022-12-18T23:43:40;33.88;;;16.20;;
69795;SDS011;57073;45.650;9.612;2022-12-18T23:53:41;38.77;;;17.67;;
